This is the latest recevied weather packets stored in our database for station/object K1BES. If no packets are shown the sender has not sent any weather packets the latest 10 day(s).
| Time | Temp. | Humidity | Pressure | Rain* | Wind** | Luminosity | Snow |
|---|---|---|---|---|---|---|---|
| 1788614989 | 32.22° C | 73% | 1017.2 hPa | 0 mm | - | 395 W/m² | - |
| 1788614685 | 31.67° C | 76% | 1017.1 hPa | 0 mm | - | 143 W/m² | - |
| 1788614379 | 31.67° C | 76% | 1017.1 hPa | 0 mm | - | 307 W/m² | - |
| 1788614079 | 31.67° C | 76% | 1017 hPa | 0 mm | - | 233 W/m² | - |
| 1788613770 | 31.67° C | 77% | 1017.2 hPa | 0 mm | - | 302 W/m² | - |
| 1788613470 | 31.11° C | 78% | 1017.2 hPa | 0 mm | - | 233 W/m² | - |
| 1788613169 | 31.11° C | 78% | 1017.1 hPa | 0 mm | - | 89 W/m² | - |
| 1788612864 | 30.56° C | 80% | 1017.3 hPa | 0 mm | - | 172 W/m² | - |
| 1788612560 | 30° C | 83% | 1017.1 hPa | 0 mm | - | 195 W/m² | - |
| 1788612256 | 30° C | 85% | 1017.1 hPa | 0 mm | - | 82 W/m² | - |
| 1788611956 | 29.44° C | 90% | 1017.2 hPa | 0 mm | - | 82 W/m² | - |
| 1788611653 | 28.33° C | 94% | 1017.1 hPa | 0 mm | - | 80 W/m² | - |
| 1788611348 | 27.78° C | 97% | 1017.2 hPa | 0 mm | - | 82 W/m² | - |
| 1788611047 | 27.22° C | 97% | 1017 hPa | 0 mm | - | 74 W/m² | - |
| 1788610743 | 27.22° C | 97% | 1017 hPa | 0 mm | - | 63 W/m² | - |
| 1788610439 | 27.22° C | 97% | 1016.8 hPa | 0 mm | - | 56 W/m² | - |
| 1788610138 | 26.67° C | 97% | 1016.7 hPa | 0 mm | - | 53 W/m² | - |
| 1788609838 | 26.67° C | 97% | 1017 hPa | 0 mm | - | 50 W/m² | - |
| 1788609533 | 26.67° C | 97% | 1016.7 hPa | 0 mm | - | 48 W/m² | - |
| 1788609232 | 26.67° C | 97% | 1016.9 hPa | 0 mm | - | 42 W/m² | - |
| 1788608927 | 26.67° C | 97% | 1016.8 hPa | 0 mm | - | 46 W/m² | - |
| 1788608626 | 26.67° C | 97% | 1016.7 hPa | 0 mm | - | 44 W/m² | - |
| 1788608326 | 26.11° C | 97% | 1016.7 hPa | 0 mm | - | 42 W/m² | - |
| 1788608022 | 26.11° C | 97% | 1016.4 hPa | 0 mm | - | 37 W/m² | - |
| 1788607717 | 26.11° C | 97% | 1016.5 hPa | 0 mm | - | 30 W/m² | - |
* Rain latest hour (hover to see other rain measurements)
** Current wind speed in m/s (hover to see current wind gust speed)